createdAt,value
2017-09-03T08:51:11.693Z,8.20
2017-09-03T08:53:39.230Z,7.90
2017-09-03T08:56:06.740Z,8.10
2017-09-03T08:58:34.276Z,7.40
2017-09-03T09:01:01.824Z,7.35
2017-09-03T09:03:29.355Z,8.00
2017-09-03T09:05:56.916Z,7.40
2017-09-03T09:08:24.459Z,6.97
2017-09-03T09:10:52.004Z,7.90
2017-09-03T09:13:19.532Z,6.77
2017-09-03T09:15:47.081Z,7.00
2017-09-03T09:18:14.626Z,6.97
2017-09-03T09:20:42.138Z,6.50
2017-09-03T09:23:09.685Z,7.27
2017-09-03T09:25:37.207Z,6.90
2017-09-03T09:28:04.768Z,6.70
2017-09-03T09:30:32.278Z,6.63
2017-09-03T09:32:59.832Z,5.97
2017-09-03T09:35:27.345Z,6.10
2017-09-03T09:37:54.876Z,6.37
2017-09-03T09:40:22.411Z,6.17
2017-09-03T09:42:49.936Z,5.90
2017-09-03T09:45:17.453Z,6.10
2017-09-03T09:47:44.993Z,5.83
2017-09-03T09:50:12.675Z,6.20
2017-09-03T09:52:40.216Z,5.30
2017-09-03T09:55:07.746Z,5.37
2017-09-03T09:57:35.260Z,4.47
2017-09-03T10:00:02.826Z,5.50
2017-09-03T10:02:31.171Z,6.17
2017-09-03T10:04:58.708Z,5.30
2017-09-03T10:07:26.234Z,5.10
2017-09-03T10:09:53.763Z,4.53
2017-09-03T10:12:21.286Z,5.20
2017-09-03T10:14:48.833Z,5.10
2017-09-03T10:17:16.357Z,4.33
2017-09-03T10:19:43.884Z,4.10
2017-09-03T10:22:11.404Z,3.97
2017-09-03T10:24:38.929Z,4.37
2017-09-03T10:27:06.450Z,5.60
2017-09-03T10:29:33.969Z,5.37
2017-09-03T10:32:01.505Z,4.77
2017-09-03T10:34:29.036Z,5.27
2017-09-03T10:36:56.577Z,3.63
2017-09-03T10:39:24.098Z,3.80
2017-09-03T10:41:51.657Z,3.60
2017-09-03T10:44:19.169Z,2.90
2017-09-03T10:46:46.702Z,2.77
2017-09-03T10:49:14.219Z,3.17
2017-09-03T10:51:41.761Z,4.60
2017-09-03T10:54:09.281Z,3.07
2017-09-03T10:56:36.808Z,3.30
2017-09-03T10:59:04.317Z,3.53
2017-09-03T11:01:31.876Z,3.10
2017-09-03T11:03:59.426Z,3.77
2017-09-03T11:06:26.965Z,5.37
2017-09-03T11:08:54.485Z,4.77
2017-09-03T11:11:22.031Z,4.23
2017-09-03T11:13:49.554Z,4.60
2017-09-03T11:16:17.101Z,4.60
2017-09-03T11:18:44.612Z,3.83
2017-09-03T11:21:12.142Z,4.33
2017-09-03T11:23:39.692Z,5.27
2017-09-03T11:26:07.243Z,4.10
2017-09-03T11:28:34.771Z,2.70
2017-09-03T11:31:02.282Z,2.73
2017-09-03T11:33:29.856Z,2.47
2017-09-03T11:35:57.377Z,3.03
2017-09-03T11:38:24.913Z,3.10
2017-09-03T11:40:52.425Z,2.33
2017-09-03T11:43:19.968Z,3.00
2017-09-03T11:45:47.489Z,2.97
2017-09-03T11:48:15.061Z,2.43
2017-09-03T11:50:42.575Z,2.80
2017-09-03T11:53:10.108Z,2.70
2017-09-03T11:55:37.616Z,2.80
2017-09-03T11:58:05.144Z,3.30
2017-09-03T12:00:32.657Z,2.90
2017-09-03T12:03:00.186Z,2.77
2017-09-03T12:05:28.545Z,2.70
2017-09-03T12:07:56.850Z,1.97
2017-09-03T12:10:24.384Z,1.93
2017-09-03T12:12:51.917Z,2.20
2017-09-03T12:15:19.434Z,2.50
2017-09-03T12:17:46.969Z,2.10
2017-09-03T12:20:14.495Z,2.07
2017-09-03T12:22:42.036Z,2.60
2017-09-03T12:25:09.550Z,2.30
2017-09-03T12:27:37.081Z,2.23
2017-09-03T12:30:04.621Z,2.40
2017-09-03T12:32:32.152Z,2.37
2017-09-03T12:34:59.701Z,2.20
2017-09-03T12:37:27.222Z,2.33
2017-09-03T12:39:55.525Z,2.47
2017-09-03T12:42:23.035Z,2.10
2017-09-03T12:44:50.563Z,2.00
2017-09-03T12:47:18.116Z,1.80
2017-09-03T12:49:45.648Z,1.50
2017-09-03T12:52:13.185Z,1.23
2017-09-03T12:54:40.720Z,3.20
2017-09-03T12:57:08.236Z,1.80
2017-09-03T12:59:35.761Z,1.30
2017-09-03T13:02:03.281Z,1.43
2017-09-03T13:04:30.812Z,1.20
2017-09-03T13:06:58.326Z,1.43
2017-09-03T13:09:25.868Z,1.00
2017-09-03T13:11:53.389Z,1.33
2017-09-03T13:14:20.932Z,1.07
2017-09-03T13:16:48.441Z,1.37
2017-09-03T13:19:15.970Z,1.13
